sensor_id;sensor_type;location;lat;lon;timestamp;P1;durP1;ratioP1;P2;durP2;ratioP2
80623;SDS011;70269;44.768;9.600;2023-10-08T00:01:14;27.08;;;12.95;;
80623;SDS011;70269;44.768;9.600;2023-10-08T00:03:44;22.77;;;12.63;;
80623;SDS011;70269;44.768;9.600;2023-10-08T00:06:18;23.38;;;12.48;;
80623;SDS011;70269;44.768;9.600;2023-10-08T00:08:47;22.75;;;13.27;;
80623;SDS011;70269;44.768;9.600;2023-10-08T00:11:13;23.70;;;12.13;;
80623;SDS011;70269;44.768;9.600;2023-10-08T00:13:41;23.52;;;12.68;;
80623;SDS011;70269;44.768;9.600;2023-10-08T00:16:08;23.05;;;12.73;;
80623;SDS011;70269;44.768;9.600;2023-10-08T00:18:35;23.17;;;13.05;;
80623;SDS011;70269;44.768;9.600;2023-10-08T00:21:01;26.13;;;13.32;;
80623;SDS011;70269;44.768;9.600;2023-10-08T00:23:36;22.48;;;12.05;;
80623;SDS011;70269;44.768;9.600;2023-10-08T00:26:10;26.08;;;13.48;;
80623;SDS011;70269;44.768;9.600;2023-10-08T00:28:35;23.33;;;12.65;;
80623;SDS011;70269;44.768;9.600;2023-10-08T00:31:01;21.38;;;11.13;;
80623;SDS011;70269;44.768;9.600;2023-10-08T00:33:32;22.00;;;12.63;;
80623;SDS011;70269;44.768;9.600;2023-10-08T00:35:58;22.30;;;12.98;;
80623;SDS011;70269;44.768;9.600;2023-10-08T00:38:24;23.25;;;10.77;;
80623;SDS011;70269;44.768;9.600;2023-10-08T00:40:57;28.10;;;12.70;;
80623;SDS011;70269;44.768;9.600;2023-10-08T00:43:29;26.20;;;13.50;;
80623;SDS011;70269;44.768;9.600;2023-10-08T00:46:00;20.73;;;11.82;;
80623;SDS011;70269;44.768;9.600;2023-10-08T00:48:26;22.30;;;12.18;;
80623;SDS011;70269;44.768;9.600;2023-10-08T00:50:56;22.92;;;11.73;;
80623;SDS011;70269;44.768;9.600;2023-10-08T00:53:37;23.80;;;12.68;;
80623;SDS011;70269;44.768;9.600;2023-10-08T00:56:05;25.48;;;12.57;;
80623;SDS011;70269;44.768;9.600;2023-10-08T00:58:41;25.25;;;13.50;;
80623;SDS011;70269;44.768;9.600;2023-10-08T01:01:11;23.35;;;13.80;;
80623;SDS011;70269;44.768;9.600;2023-10-08T01:03:37;21.63;;;12.60;;
80623;SDS011;70269;44.768;9.600;2023-10-08T01:06:09;23.65;;;12.07;;
80623;SDS011;70269;44.768;9.600;2023-10-08T01:08:40;24.42;;;12.85;;
80623;SDS011;70269;44.768;9.600;2023-10-08T01:11:18;24.55;;;13.25;;
80623;SDS011;70269;44.768;9.600;2023-10-08T01:14:07;25.15;;;13.02;;
80623;SDS011;70269;44.768;9.600;2023-10-08T01:16:33;24.63;;;13.68;;
80623;SDS011;70269;44.768;9.600;2023-10-08T01:19:01;22.75;;;13.27;;
80623;SDS011;70269;44.768;9.600;2023-10-08T01:21:31;23.52;;;12.55;;
80623;SDS011;70269;44.768;9.600;2023-10-08T01:24:02;27.50;;;12.05;;
80623;SDS011;70269;44.768;9.600;2023-10-08T01:26:31;21.88;;;12.23;;
80623;SDS011;70269;44.768;9.600;2023-10-08T01:29:04;20.73;;;10.93;;
80623;SDS011;70269;44.768;9.600;2023-10-08T01:31:33;23.35;;;12.52;;
80623;SDS011;70269;44.768;9.600;2023-10-08T01:33:59;22.02;;;11.45;;
80623;SDS011;70269;44.768;9.600;2023-10-08T01:36:26;23.17;;;11.60;;
80623;SDS011;70269;44.768;9.600;2023-10-08T01:38:51;23.60;;;13.02;;
80623;SDS011;70269;44.768;9.600;2023-10-08T01:41:20;20.33;;;10.57;;
80623;SDS011;70269;44.768;9.600;2023-10-08T01:43:56;22.60;;;10.90;;
80623;SDS011;70269;44.768;9.600;2023-10-08T01:46:24;27.20;;;12.88;;
80623;SDS011;70269;44.768;9.600;2023-10-08T01:48:51;21.55;;;11.55;;
80623;SDS011;70269;44.768;9.600;2023-10-08T01:51:21;22.35;;;10.95;;
80623;SDS011;70269;44.768;9.600;2023-10-08T01:54:01;23.55;;;12.18;;
80623;SDS011;70269;44.768;9.600;2023-10-08T01:56:28;22.13;;;12.38;;
80623;SDS011;70269;44.768;9.600;2023-10-08T01:58:55;23.40;;;12.02;;
80623;SDS011;70269;44.768;9.600;2023-10-08T02:01:21;25.42;;;13.02;;
80623;SDS011;70269;44.768;9.600;2023-10-08T02:03:47;22.55;;;12.18;;
80623;SDS011;70269;44.768;9.600;2023-10-08T02:06:13;24.67;;;12.80;;
80623;SDS011;70269;44.768;9.600;2023-10-08T02:08:39;23.38;;;12.20;;
80623;SDS011;70269;44.768;9.600;2023-10-08T02:11:05;19.70;;;11.50;;
80623;SDS011;70269;44.768;9.600;2023-10-08T02:13:32;24.38;;;12.40;;
80623;SDS011;70269;44.768;9.600;2023-10-08T02:15:59;20.83;;;12.18;;
80623;SDS011;70269;44.768;9.600;2023-10-08T02:18:25;23.25;;;11.20;;
80623;SDS011;70269;44.768;9.600;2023-10-08T02:20:51;22.17;;;10.75;;
80623;SDS011;70269;44.768;9.600;2023-10-08T02:23:17;22.58;;;12.13;;
80623;SDS011;70269;44.768;9.600;2023-10-08T02:25:43;20.63;;;11.05;;
80623;SDS011;70269;44.768;9.600;2023-10-08T02:28:10;23.52;;;11.45;;
80623;SDS011;70269;44.768;9.600;2023-10-08T02:30:40;21.55;;;10.68;;
80623;SDS011;70269;44.768;9.600;2023-10-08T02:33:07;21.67;;;11.73;;
80623;SDS011;70269;44.768;9.600;2023-10-08T02:35:43;21.80;;;10.73;;
80623;SDS011;70269;44.768;9.600;2023-10-08T02:38:13;22.38;;;11.30;;
80623;SDS011;70269;44.768;9.600;2023-10-08T02:40:41;22.95;;;11.23;;
80623;SDS011;70269;44.768;9.600;2023-10-08T02:43:14;19.25;;;11.20;;
80623;SDS011;70269;44.768;9.600;2023-10-08T02:45:41;20.67;;;10.75;;
80623;SDS011;70269;44.768;9.600;2023-10-08T02:48:07;21.60;;;10.20;;
80623;SDS011;70269;44.768;9.600;2023-10-08T02:50:38;19.58;;;10.68;;
80623;SDS011;70269;44.768;9.600;2023-10-08T02:53:06;19.85;;;10.85;;
80623;SDS011;70269;44.768;9.600;2023-10-08T02:55:43;19.65;;;10.23;;
80623;SDS011;70269;44.768;9.600;2023-10-08T02:58:12;18.45;;;10.30;;
80623;SDS011;70269;44.768;9.600;2023-10-08T03:00:45;24.17;;;11.15;;
80623;SDS011;70269;44.768;9.600;2023-10-08T03:03:12;19.45;;;10.07;;
80623;SDS011;70269;44.768;9.600;2023-10-08T03:05:45;18.02;;;9.48;;
80623;SDS011;70269;44.768;9.600;2023-10-08T03:08:13;19.10;;;11.15;;
80623;SDS011;70269;44.768;9.600;2023-10-08T03:10:44;17.45;;;9.90;;
80623;SDS011;70269;44.768;9.600;2023-10-08T03:13:10;17.70;;;9.90;;
80623;SDS011;70269;44.768;9.600;2023-10-08T03:15:40;18.90;;;10.65;;
80623;SDS011;70269;44.768;9.600;2023-10-08T03:18:15;19.88;;;9.55;;
80623;SDS011;70269;44.768;9.600;2023-10-08T03:20:41;19.85;;;10.20;;
80623;SDS011;70269;44.768;9.600;2023-10-08T03:23:09;19.65;;;10.20;;
80623;SDS011;70269;44.768;9.600;2023-10-08T03:25:54;19.75;;;10.23;;
80623;SDS011;70269;44.768;9.600;2023-10-08T03:28:44;16.23;;;8.25;;
80623;SDS011;70269;44.768;9.600;2023-10-08T03:31:09;18.98;;;9.32;;
80623;SDS011;70269;44.768;9.600;2023-10-08T03:33:43;16.75;;;8.60;;
80623;SDS011;70269;44.768;9.600;2023-10-08T03:36:14;15.10;;;8.13;;
80623;SDS011;70269;44.768;9.600;2023-10-08T03:38:47;15.88;;;8.43;;
80623;SDS011;70269;44.768;9.600;2023-10-08T03:41:22;16.67;;;8.55;;
80623;SDS011;70269;44.768;9.600;2023-10-08T03:43:55;17.38;;;8.20;;
80623;SDS011;70269;44.768;9.600;2023-10-08T03:46:31;15.60;;;8.63;;
80623;SDS011;70269;44.768;9.600;2023-10-08T03:48:57;15.35;;;7.72;;
80623;SDS011;70269;44.768;9.600;2023-10-08T03:51:30;15.80;;;8.10;;
80623;SDS011;70269;44.768;9.600;2023-10-08T03:54:05;13.63;;;8.30;;
80623;SDS011;70269;44.768;9.600;2023-10-08T03:56:39;16.15;;;7.80;;
80623;SDS011;70269;44.768;9.600;2023-10-08T03:59:14;12.98;;;7.38;;
80623;SDS011;70269;44.768;9.600;2023-10-08T04:01:46;13.55;;;7.63;;
80623;SDS011;70269;44.768;9.600;2023-10-08T04:04:14;13.45;;;7.43;;
80623;SDS011;70269;44.768;9.600;2023-10-08T04:06:41;11.98;;;6.38;;
80623;SDS011;70269;44.768;9.600;2023-10-08T04:09:15;14.25;;;7.53;;
80623;SDS011;70269;44.768;9.600;2023-10-08T04:11:49;14.05;;;6.47;;
80623;SDS011;70269;44.768;9.600;2023-10-08T04:14:16;12.88;;;6.43;;
80623;SDS011;70269;44.768;9.600;2023-10-08T04:16:46;15.43;;;6.10;;
80623;SDS011;70269;44.768;9.600;2023-10-08T04:19:17;14.95;;;6.20;;
80623;SDS011;70269;44.768;9.600;2023-10-08T04:21:43;13.05;;;6.10;;
80623;SDS011;70269;44.768;9.600;2023-10-08T04:24:10;12.18;;;5.93;;
80623;SDS011;70269;44.768;9.600;2023-10-08T04:26:39;12.60;;;6.90;;
80623;SDS011;70269;44.768;9.600;2023-10-08T04:29:06;13.07;;;6.47;;
80623;SDS011;70269;44.768;9.600;2023-10-08T04:31:32;13.60;;;6.70;;
80623;SDS011;70269;44.768;9.600;2023-10-08T04:34:03;14.55;;;6.85;;
80623;SDS011;70269;44.768;9.600;2023-10-08T04:36:42;12.00;;;6.45;;
80623;SDS011;70269;44.768;9.600;2023-10-08T04:39:10;10.82;;;5.90;;
80623;SDS011;70269;44.768;9.600;2023-10-08T04:41:40;11.93;;;5.78;;
80623;SDS011;70269;44.768;9.600;2023-10-08T04:44:08;14.05;;;6.28;;
80623;SDS011;70269;44.768;9.600;2023-10-08T04:46:43;11.88;;;5.55;;
80623;SDS011;70269;44.768;9.600;2023-10-08T04:49:12;11.30;;;6.30;;
80623;SDS011;70269;44.768;9.600;2023-10-08T04:52:05;10.40;;;5.25;;
80623;SDS011;70269;44.768;9.600;2023-10-08T04:54:44;11.68;;;5.55;;
80623;SDS011;70269;44.768;9.600;2023-10-08T04:57:33;10.05;;;5.25;;
80623;SDS011;70269;44.768;9.600;2023-10-08T04:59:59;10.90;;;5.22;;
80623;SDS011;70269;44.768;9.600;2023-10-08T05:02:27;10.15;;;5.18;;
80623;SDS011;70269;44.768;9.600;2023-10-08T05:04:59;11.32;;;6.03;;
80623;SDS011;70269;44.768;9.600;2023-10-08T05:07:37;11.10;;;5.68;;
80623;SDS011;70269;44.768;9.600;2023-10-08T05:10:25;12.48;;;5.88;;
80623;SDS011;70269;44.768;9.600;2023-10-08T05:12:54;10.85;;;5.22;;
80623;SDS011;70269;44.768;9.600;2023-10-08T05:15:26;10.77;;;4.88;;
80623;SDS011;70269;44.768;9.600;2023-10-08T05:17:58;11.45;;;5.50;;
80623;SDS011;70269;44.768;9.600;2023-10-08T05:20:39;10.85;;;5.30;;
80623;SDS011;70269;44.768;9.600;2023-10-08T05:23:14;12.20;;;4.78;;
80623;SDS011;70269;44.768;9.600;2023-10-08T05:26:06;10.15;;;5.00;;
80623;SDS011;70269;44.768;9.600;2023-10-08T05:28:32;11.13;;;5.00;;
80623;SDS011;70269;44.768;9.600;2023-10-08T05:31:08;10.60;;;4.95;;
80623;SDS011;70269;44.768;9.600;2023-10-08T05:33:57;8.70;;;4.30;;
80623;SDS011;70269;44.768;9.600;2023-10-08T05:36:41;8.30;;;4.53;;
80623;SDS011;70269;44.768;9.600;2023-10-08T05:39:36;12.35;;;4.78;;
80623;SDS011;70269;44.768;9.600;2023-10-08T05:42:05;8.27;;;3.75;;
80623;SDS011;70269;44.768;9.600;2023-10-08T05:44:45;9.40;;;4.30;;
80623;SDS011;70269;44.768;9.600;2023-10-08T05:47:15;9.60;;;4.55;;
80623;SDS011;70269;44.768;9.600;2023-10-08T05:52:45;11.75;;;3.97;;
80623;SDS011;70269;44.768;9.600;2023-10-08T05:55:27;8.05;;;4.07;;
80623;SDS011;70269;44.768;9.600;2023-10-08T05:58:03;9.00;;;3.95;;
80623;SDS011;70269;44.768;9.600;2023-10-08T06:00:49;11.68;;;4.35;;
80623;SDS011;70269;44.768;9.600;2023-10-08T06:03:19;7.60;;;3.40;;
80623;SDS011;70269;44.768;9.600;2023-10-08T06:06:01;9.82;;;4.05;;
80623;SDS011;70269;44.768;9.600;2023-10-08T06:08:37;10.30;;;4.35;;
80623;SDS011;70269;44.768;9.600;2023-10-08T06:11:25;9.27;;;3.83;;
80623;SDS011;70269;44.768;9.600;2023-10-08T06:14:22;9.95;;;3.75;;
80623;SDS011;70269;44.768;9.600;2023-10-08T06:17:14;10.10;;;3.85;;
80623;SDS011;70269;44.768;9.600;2023-10-08T06:19:52;9.60;;;3.90;;
80623;SDS011;70269;44.768;9.600;2023-10-08T06:22:18;9.85;;;3.67;;
80623;SDS011;70269;44.768;9.600;2023-10-08T06:24:44;7.68;;;3.72;;
80623;SDS011;70269;44.768;9.600;2023-10-08T06:27:10;7.30;;;3.50;;
80623;SDS011;70269;44.768;9.600;2023-10-08T06:29:42;10.77;;;3.85;;
80623;SDS011;70269;44.768;9.600;2023-10-08T06:32:09;8.55;;;3.47;;
80623;SDS011;70269;44.768;9.600;2023-10-08T06:34:37;8.77;;;3.45;;
80623;SDS011;70269;44.768;9.600;2023-10-08T06:37:05;10.02;;;4.28;;
80623;SDS011;70269;44.768;9.600;2023-10-08T06:39:31;8.98;;;4.00;;
80623;SDS011;70269;44.768;9.600;2023-10-08T06:42:15;7.68;;;3.20;;
80623;SDS011;70269;44.768;9.600;2023-10-08T06:44:42;8.88;;;3.53;;
80623;SDS011;70269;44.768;9.600;2023-10-08T06:47:11;8.30;;;3.13;;
80623;SDS011;70269;44.768;9.600;2023-10-08T06:49:41;7.47;;;3.28;;
80623;SDS011;70269;44.768;9.600;2023-10-08T06:52:08;5.95;;;3.15;;
80623;SDS011;70269;44.768;9.600;2023-10-08T06:54:38;7.68;;;3.25;;
80623;SDS011;70269;44.768;9.600;2023-10-08T06:57:04;9.43;;;3.67;;
80623;SDS011;70269;44.768;9.600;2023-10-08T06:59:31;8.80;;;3.13;;
80623;SDS011;70269;44.768;9.600;2023-10-08T07:01:57;9.32;;;2.92;;
80623;SDS011;70269;44.768;9.600;2023-10-08T07:04:24;8.82;;;3.97;;
80623;SDS011;70269;44.768;9.600;2023-10-08T07:06:51;8.93;;;3.05;;
80623;SDS011;70269;44.768;9.600;2023-10-08T07:09:16;8.27;;;3.17;;
80623;SDS011;70269;44.768;9.600;2023-10-08T07:11:51;7.68;;;2.65;;
80623;SDS011;70269;44.768;9.600;2023-10-08T07:14:27;7.90;;;3.72;;
80623;SDS011;70269;44.768;9.600;2023-10-08T07:16:54;7.28;;;2.53;;
80623;SDS011;70269;44.768;9.600;2023-10-08T07:19:23;13.50;;;3.85;;
80623;SDS011;70269;44.768;9.600;2023-10-08T07:22:02;9.38;;;2.78;;
80623;SDS011;70269;44.768;9.600;2023-10-08T07:24:33;8.35;;;3.50;;
80623;SDS011;70269;44.768;9.600;2023-10-08T07:27:02;8.80;;;3.13;;
80623;SDS011;70269;44.768;9.600;2023-10-08T07:29:34;7.32;;;2.88;;
80623;SDS011;70269;44.768;9.600;2023-10-08T07:32:00;8.00;;;3.22;;
80623;SDS011;70269;44.768;9.600;2023-10-08T07:34:38;7.93;;;3.25;;
80623;SDS011;70269;44.768;9.600;2023-10-08T07:37:04;8.88;;;3.08;;
80623;SDS011;70269;44.768;9.600;2023-10-08T07:39:31;8.30;;;2.80;;
80623;SDS011;70269;44.768;9.600;2023-10-08T07:41:57;8.65;;;2.97;;
80623;SDS011;70269;44.768;9.600;2023-10-08T07:44:25;7.72;;;3.20;;
80623;SDS011;70269;44.768;9.600;2023-10-08T07:46:53;9.75;;;3.47;;
80623;SDS011;70269;44.768;9.600;2023-10-08T07:49:22;8.88;;;2.75;;
80623;SDS011;70269;44.768;9.600;2023-10-08T07:51:49;8.88;;;3.28;;
80623;SDS011;70269;44.768;9.600;2023-10-08T07:54:18;7.07;;;2.60;;
80623;SDS011;70269;44.768;9.600;2023-10-08T07:56:47;9.50;;;3.17;;
80623;SDS011;70269;44.768;9.600;2023-10-08T07:59:13;8.35;;;2.70;;
80623;SDS011;70269;44.768;9.600;2023-10-08T08:01:41;7.45;;;3.35;;
80623;SDS011;70269;44.768;9.600;2023-10-08T08:04:11;5.90;;;2.47;;
80623;SDS011;70269;44.768;9.600;2023-10-08T08:06:47;5.82;;;2.53;;
80623;SDS011;70269;44.768;9.600;2023-10-08T08:09:15;9.48;;;3.25;;
80623;SDS011;70269;44.768;9.600;2023-10-08T08:11:45;8.45;;;2.63;;
80623;SDS011;70269;44.768;9.600;2023-10-08T08:14:12;10.48;;;3.00;;
80623;SDS011;70269;44.768;9.600;2023-10-08T08:16:42;9.00;;;2.83;;
80623;SDS011;70269;44.768;9.600;2023-10-08T08:19:13;7.45;;;2.67;;
80623;SDS011;70269;44.768;9.600;2023-10-08T08:21:41;9.18;;;2.75;;
80623;SDS011;70269;44.768;9.600;2023-10-08T08:24:13;10.27;;;2.90;;
80623;SDS011;70269;44.768;9.600;2023-10-08T08:26:50;7.88;;;2.97;;
80623;SDS011;70269;44.768;9.600;2023-10-08T08:29:36;8.35;;;2.40;;
80623;SDS011;70269;44.768;9.600;2023-10-08T08:32:12;5.80;;;2.40;;
80623;SDS011;70269;44.768;9.600;2023-10-08T08:34:43;7.72;;;3.10;;
80623;SDS011;70269;44.768;9.600;2023-10-08T08:37:11;9.43;;;2.33;;
80623;SDS011;70269;44.768;9.600;2023-10-08T08:39:40;10.10;;;2.80;;
80623;SDS011;70269;44.768;9.600;2023-10-08T08:42:07;6.85;;;2.42;;
80623;SDS011;70269;44.768;9.600;2023-10-08T08:44:36;8.63;;;2.30;;
80623;SDS011;70269;44.768;9.600;2023-10-08T08:47:13;8.85;;;2.60;;
80623;SDS011;70269;44.768;9.600;2023-10-08T08:49:45;7.85;;;2.35;;
80623;SDS011;70269;44.768;9.600;2023-10-08T08:52:10;6.18;;;2.30;;
80623;SDS011;70269;44.768;9.600;2023-10-08T08:54:38;6.38;;;2.10;;
80623;SDS011;70269;44.768;9.600;2023-10-08T08:57:04;9.75;;;2.97;;
80623;SDS011;70269;44.768;9.600;2023-10-08T08:59:31;7.57;;;2.33;;
80623;SDS011;70269;44.768;9.600;2023-10-08T09:01:58;6.72;;;1.88;;
80623;SDS011;70269;44.768;9.600;2023-10-08T09:04:29;7.63;;;2.30;;
80623;SDS011;70269;44.768;9.600;2023-10-08T09:06:56;8.90;;;2.83;;
80623;SDS011;70269;44.768;9.600;2023-10-08T09:09:22;8.30;;;2.28;;
80623;SDS011;70269;44.768;9.600;2023-10-08T09:11:56;10.35;;;3.47;;
80623;SDS011;70269;44.768;9.600;2023-10-08T09:14:23;9.45;;;2.60;;
80623;SDS011;70269;44.768;9.600;2023-10-08T09:17:00;7.10;;;2.20;;
80623;SDS011;70269;44.768;9.600;2023-10-08T09:19:26;9.07;;;2.47;;
80623;SDS011;70269;44.768;9.600;2023-10-08T09:22:01;11.18;;;2.47;;
80623;SDS011;70269;44.768;9.600;2023-10-08T09:24:32;9.43;;;2.80;;
80623;SDS011;70269;44.768;9.600;2023-10-08T09:26:59;7.93;;;2.15;;
80623;SDS011;70269;44.768;9.600;2023-10-08T09:29:26;8.82;;;2.83;;
80623;SDS011;70269;44.768;9.600;2023-10-08T09:31:55;10.27;;;2.90;;
80623;SDS011;70269;44.768;9.600;2023-10-08T09:34:31;8.05;;;2.50;;
80623;SDS011;70269;44.768;9.600;2023-10-08T09:36:58;8.07;;;2.60;;
80623;SDS011;70269;44.768;9.600;2023-10-08T09:39:29;6.60;;;3.05;;
80623;SDS011;70269;44.768;9.600;2023-10-08T09:41:59;10.23;;;2.00;;
80623;SDS011;70269;44.768;9.600;2023-10-08T09:44:28;9.15;;;3.03;;
80623;SDS011;70269;44.768;9.600;2023-10-08T09:47:08;7.43;;;1.98;;
80623;SDS011;70269;44.768;9.600;2023-10-08T09:49:46;10.93;;;2.50;;
80623;SDS011;70269;44.768;9.600;2023-10-08T09:52:33;6.05;;;1.90;;
80623;SDS011;70269;44.768;9.600;2023-10-08T09:55:05;8.95;;;2.50;;
80623;SDS011;70269;44.768;9.600;2023-10-08T09:57:38;9.88;;;2.22;;
80623;SDS011;70269;44.768;9.600;2023-10-08T10:00:04;8.10;;;2.25;;
80623;SDS011;70269;44.768;9.600;2023-10-08T10:02:40;14.73;;;2.95;;
80623;SDS011;70269;44.768;9.600;2023-10-08T10:05:10;10.15;;;2.70;;
80623;SDS011;70269;44.768;9.600;2023-10-08T10:07:37;9.88;;;2.40;;
80623;SDS011;70269;44.768;9.600;2023-10-08T10:12:52;12.60;;;3.20;;
80623;SDS011;70269;44.768;9.600;2023-10-08T10:15:21;8.88;;;2.80;;
80623;SDS011;70269;44.768;9.600;2023-10-08T10:17:49;9.73;;;2.05;;
80623;SDS011;70269;44.768;9.600;2023-10-08T10:20:16;21.23;;;4.88;;
80623;SDS011;70269;44.768;9.600;2023-10-08T10:22:42;10.57;;;3.40;;
80623;SDS011;70269;44.768;9.600;2023-10-08T10:25:09;11.80;;;1.90;;
80623;SDS011;70269;44.768;9.600;2023-10-08T10:30:24;9.20;;;2.20;;
80623;SDS011;70269;44.768;9.600;2023-10-08T10:32:53;11.07;;;2.55;;
80623;SDS011;70269;44.768;9.600;2023-10-08T10:35:19;13.88;;;3.08;;
80623;SDS011;70269;44.768;9.600;2023-10-08T10:37:45;10.13;;;2.38;;
80623;SDS011;70269;44.768;9.600;2023-10-08T10:40:24;10.95;;;2.83;;
80623;SDS011;70269;44.768;9.600;2023-10-08T10:43:08;13.45;;;2.28;;
80623;SDS011;70269;44.768;9.600;2023-10-08T10:45:41;8.80;;;1.67;;
80623;SDS011;70269;44.768;9.600;2023-10-08T10:48:12;9.52;;;2.05;;
80623;SDS011;70269;44.768;9.600;2023-10-08T10:50:47;11.00;;;1.75;;
80623;SDS011;70269;44.768;9.600;2023-10-08T10:56:11;12.38;;;1.83;;
80623;SDS011;70269;44.768;9.600;2023-10-08T10:58:52;8.00;;;2.05;;
80623;SDS011;70269;44.768;9.600;2023-10-08T11:01:22;7.13;;;1.60;;
80623;SDS011;70269;44.768;9.600;2023-10-08T11:03:55;12.68;;;1.95;;
80623;SDS011;70269;44.768;9.600;2023-10-08T11:06:25;13.52;;;2.22;;
80623;SDS011;70269;44.768;9.600;2023-10-08T11:08:52;11.48;;;1.98;;
80623;SDS011;70269;44.768;9.600;2023-10-08T11:11:19;9.93;;;2.10;;
80623;SDS011;70269;44.768;9.600;2023-10-08T11:13:52;9.60;;;1.85;;
80623;SDS011;70269;44.768;9.600;2023-10-08T11:16:22;12.60;;;2.90;;
80623;SDS011;70269;44.768;9.600;2023-10-08T11:18:48;8.23;;;2.15;;
80623;SDS011;70269;44.768;9.600;2023-10-08T11:21:16;9.85;;;2.20;;
80623;SDS011;70269;44.768;9.600;2023-10-08T11:23:48;7.82;;;1.60;;
80623;SDS011;70269;44.768;9.600;2023-10-08T11:26:18;8.77;;;2.08;;
80623;SDS011;70269;44.768;9.600;2023-10-08T11:28:46;12.27;;;2.00;;
80623;SDS011;70269;44.768;9.600;2023-10-08T11:31:16;11.68;;;1.92;;
80623;SDS011;70269;44.768;9.600;2023-10-08T11:33:46;11.90;;;2.08;;
80623;SDS011;70269;44.768;9.600;2023-10-08T11:36:22;8.32;;;1.90;;
80623;SDS011;70269;44.768;9.600;2023-10-08T11:39:09;9.25;;;2.13;;
80623;SDS011;70269;44.768;9.600;2023-10-08T11:41:36;6.50;;;1.88;;
80623;SDS011;70269;44.768;9.600;2023-10-08T11:44:16;7.38;;;2.00;;
80623;SDS011;70269;44.768;9.600;2023-10-08T11:46:45;6.90;;;1.60;;
80623;SDS011;70269;44.768;9.600;2023-10-08T11:49:11;8.55;;;1.88;;
80623;SDS011;70269;44.768;9.600;2023-10-08T11:51:50;6.82;;;1.83;;
80623;SDS011;70269;44.768;9.600;2023-10-08T11:54:17;10.32;;;1.80;;
80623;SDS011;70269;44.768;9.600;2023-10-08T11:56:45;5.75;;;1.55;;
80623;SDS011;70269;44.768;9.600;2023-10-08T11:59:12;9.00;;;2.47;;
80623;SDS011;70269;44.768;9.600;2023-10-08T12:01:38;11.93;;;2.13;;
80623;SDS011;70269;44.768;9.600;2023-10-08T12:04:08;10.98;;;2.95;;
80623;SDS011;70269;44.768;9.600;2023-10-08T12:06:42;10.45;;;2.10;;
80623;SDS011;70269;44.768;9.600;2023-10-08T12:09:17;9.57;;;2.25;;
80623;SDS011;70269;44.768;9.600;2023-10-08T12:11:47;11.60;;;2.28;;
80623;SDS011;70269;44.768;9.600;2023-10-08T12:14:13;6.38;;;1.55;;
80623;SDS011;70269;44.768;9.600;2023-10-08T12:16:40;7.50;;;1.88;;
80623;SDS011;70269;44.768;9.600;2023-10-08T12:19:07;6.72;;;1.85;;
80623;SDS011;70269;44.768;9.600;2023-10-08T12:21:41;9.15;;;2.50;;
80623;SDS011;70269;44.768;9.600;2023-10-08T12:24:07;9.43;;;2.88;;
80623;SDS011;70269;44.768;9.600;2023-10-08T12:26:37;8.38;;;1.75;;
80623;SDS011;70269;44.768;9.600;2023-10-08T12:29:12;9.50;;;2.10;;
80623;SDS011;70269;44.768;9.600;2023-10-08T12:31:42;8.77;;;2.55;;
80623;SDS011;70269;44.768;9.600;2023-10-08T12:34:13;11.23;;;2.17;;
80623;SDS011;70269;44.768;9.600;2023-10-08T12:36:39;7.70;;;1.85;;
80623;SDS011;70269;44.768;9.600;2023-10-08T12:39:04;7.13;;;1.90;;
80623;SDS011;70269;44.768;9.600;2023-10-08T12:41:35;10.98;;;2.58;;
80623;SDS011;70269;44.768;9.600;2023-10-08T12:44:03;8.32;;;1.77;;
80623;SDS011;70269;44.768;9.600;2023-10-08T12:46:32;5.35;;;1.38;;
80623;SDS011;70269;44.768;9.600;2023-10-08T12:48:59;8.10;;;2.35;;
80623;SDS011;70269;44.768;9.600;2023-10-08T12:53:57;11.05;;;2.03;;
80623;SDS011;70269;44.768;9.600;2023-10-08T12:56:31;6.32;;;2.22;;
80623;SDS011;70269;44.768;9.600;2023-10-08T12:59:01;13.18;;;2.13;;
80623;SDS011;70269;44.768;9.600;2023-10-08T13:01:32;7.65;;;2.17;;
80623;SDS011;70269;44.768;9.600;2023-10-08T13:04:01;9.15;;;1.90;;
80623;SDS011;70269;44.768;9.600;2023-10-08T13:06:32;7.30;;;2.13;;
80623;SDS011;70269;44.768;9.600;2023-10-08T13:09:02;6.95;;;1.90;;
80623;SDS011;70269;44.768;9.600;2023-10-08T13:11:37;12.35;;;2.08;;
80623;SDS011;70269;44.768;9.600;2023-10-08T13:14:04;10.10;;;1.75;;
80623;SDS011;70269;44.768;9.600;2023-10-08T13:16:30;8.85;;;1.92;;
80623;SDS011;70269;44.768;9.600;2023-10-08T13:18:57;9.63;;;2.17;;
80623;SDS011;70269;44.768;9.600;2023-10-08T13:21:24;5.95;;;1.58;;
80623;SDS011;70269;44.768;9.600;2023-10-08T13:23:50;7.40;;;1.48;;
80623;SDS011;70269;44.768;9.600;2023-10-08T13:26:21;8.95;;;1.77;;
80623;SDS011;70269;44.768;9.600;2023-10-08T13:28:49;4.25;;;1.23;;
80623;SDS011;70269;44.768;9.600;2023-10-08T13:31:15;7.80;;;1.83;;
80623;SDS011;70269;44.768;9.600;2023-10-08T13:33:42;8.15;;;1.85;;
80623;SDS011;70269;44.768;9.600;2023-10-08T13:36:10;9.52;;;2.58;;
80623;SDS011;70269;44.768;9.600;2023-10-08T13:38:36;11.60;;;1.80;;
80623;SDS011;70269;44.768;9.600;2023-10-08T13:41:03;7.45;;;1.67;;
80623;SDS011;70269;44.768;9.600;2023-10-08T13:43:32;8.15;;;1.40;;
80623;SDS011;70269;44.768;9.600;2023-10-08T13:46:02;9.55;;;1.85;;
80623;SDS011;70269;44.768;9.600;2023-10-08T13:48:30;10.98;;;2.22;;
80623;SDS011;70269;44.768;9.600;2023-10-08T13:51:07;5.65;;;1.50;;
80623;SDS011;70269;44.768;9.600;2023-10-08T13:53:47;7.75;;;1.73;;
80623;SDS011;70269;44.768;9.600;2023-10-08T13:56:17;5.50;;;1.30;;
80623;SDS011;70269;44.768;9.600;2023-10-08T13:58:45;7.40;;;1.30;;
80623;SDS011;70269;44.768;9.600;2023-10-08T14:01:15;9.05;;;1.92;;
80623;SDS011;70269;44.768;9.600;2023-10-08T14:03:47;5.78;;;1.20;;
80623;SDS011;70269;44.768;9.600;2023-10-08T14:06:14;12.07;;;2.17;;
80623;SDS011;70269;44.768;9.600;2023-10-08T14:08:41;10.82;;;2.28;;
80623;SDS011;70269;44.768;9.600;2023-10-08T14:11:13;5.88;;;1.20;;
80623;SDS011;70269;44.768;9.600;2023-10-08T14:13:39;12.85;;;1.60;;
80623;SDS011;70269;44.768;9.600;2023-10-08T14:16:08;8.57;;;1.48;;
80623;SDS011;70269;44.768;9.600;2023-10-08T14:18:36;9.95;;;1.70;;
80623;SDS011;70269;44.768;9.600;2023-10-08T14:21:08;8.27;;;1.55;;
80623;SDS011;70269;44.768;9.600;2023-10-08T14:23:38;7.32;;;1.40;;
80623;SDS011;70269;44.768;9.600;2023-10-08T14:26:05;6.68;;;1.40;;
80623;SDS011;70269;44.768;9.600;2023-10-08T14:28:33;10.10;;;1.80;;
80623;SDS011;70269;44.768;9.600;2023-10-08T14:31:09;7.05;;;2.10;;
80623;SDS011;70269;44.768;9.600;2023-10-08T14:33:43;9.57;;;1.52;;
80623;SDS011;70269;44.768;9.600;2023-10-08T14:36:24;9.75;;;1.80;;
80623;SDS011;70269;44.768;9.600;2023-10-08T14:39:09;6.80;;;1.10;;
80623;SDS011;70269;44.768;9.600;2023-10-08T14:41:53;7.70;;;1.60;;
80623;SDS011;70269;44.768;9.600;2023-10-08T14:44:38;6.82;;;1.35;;
80623;SDS011;70269;44.768;9.600;2023-10-08T14:47:04;8.00;;;1.70;;
80623;SDS011;70269;44.768;9.600;2023-10-08T14:49:30;8.48;;;1.55;;
80623;SDS011;70269;44.768;9.600;2023-10-08T14:51:56;9.55;;;1.55;;
80623;SDS011;70269;44.768;9.600;2023-10-08T14:54:22;7.43;;;1.83;;
80623;SDS011;70269;44.768;9.600;2023-10-08T14:56:49;6.00;;;1.70;;
80623;SDS011;70269;44.768;9.600;2023-10-08T14:59:15;14.32;;;1.67;;
80623;SDS011;70269;44.768;9.600;2023-10-08T15:01:43;9.20;;;2.40;;
80623;SDS011;70269;44.768;9.600;2023-10-08T15:04:10;8.25;;;1.48;;
80623;SDS011;70269;44.768;9.600;2023-10-08T15:06:36;10.07;;;1.50;;
80623;SDS011;70269;44.768;9.600;2023-10-08T15:09:04;5.10;;;1.30;;
80623;SDS011;70269;44.768;9.600;2023-10-08T15:11:30;8.20;;;1.23;;
80623;SDS011;70269;44.768;9.600;2023-10-08T15:13:56;14.20;;;1.90;;